TimeCDT,TemperatureF,Dew PointF,Humidity,Sea Level PressureIn,VisibilityMPH,Wind Direction,Wind SpeedMPH,Gust SpeedMPH,PrecipitationIn,Events,Conditions,WindDirDegrees,DateUTC
12:15 AM,50.0,45.5,85,30.11,10.0,SW,3.5,-,N/A,,Clear,220,2013-10-08 05:15:00
12:35 AM,50.7,45.0,81,30.11,10.0,SW,4.6,-,N/A,,Clear,220,2013-10-08 05:35:00
12:55 AM,49.5,45.1,85,30.12,10.0,South,3.5,-,N/A,,Clear,180,2013-10-08 05:55:00
1:15 AM,49.1,44.8,85,30.12,10.0,South,4.6,-,N/A,,Clear,180,2013-10-08 06:15:00
1:35 AM,48.9,44.6,85,30.12,10.0,South,4.6,-,N/A,,Clear,180,2013-10-08 06:35:00
1:55 AM,49.1,44.8,85,30.12,10.0,Calm,Calm,-,N/A,,Clear,0,2013-10-08 06:55:00
2:15 AM,48.7,44.2,84,30.12,10.0,Calm,Calm,-,N/A,,Clear,0,2013-10-08 07:15:00
2:35 AM,48.7,44.4,85,30.12,10.0,Calm,Calm,-,N/A,,Clear,0,2013-10-08 07:35:00
2:55 AM,48.6,44.4,86,30.13,10.0,SW,3.5,-,N/A,,Clear,220,2013-10-08 07:55:00
3:15 AM,48.2,44.4,87,30.13,10.0,SW,4.6,-,N/A,,Clear,220,2013-10-08 08:15:00
3:35 AM,48.2,44.4,87,30.13,10.0,SW,3.5,-,N/A,,Clear,220,2013-10-08 08:35:00
3:55 AM,47.3,44.1,88,30.14,10.0,South,3.5,-,N/A,,Clear,190,2013-10-08 08:55:00
4:15 AM,45.7,43.5,92,30.14,10.0,Calm,Calm,-,N/A,,Clear,0,2013-10-08 09:15:00
4:35 AM,44.6,43.2,95,30.14,10.0,Calm,Calm,-,N/A,,Clear,0,2013-10-08 09:35:00
4:55 AM,45.5,43.2,92,30.15,10.0,Calm,Calm,-,N/A,,Clear,0,2013-10-08 09:55:00
5:15 AM,45.5,43.3,92,30.16,10.0,Calm,Calm,-,N/A,,Clear,0,2013-10-08 10:15:00
5:35 AM,43.9,42.4,95,30.16,10.0,South,3.5,-,N/A,,Clear,170,2013-10-08 10:35:00
5:55 AM,43.3,42.1,95,30.17,10.0,South,3.5,-,N/A,,Clear,170,2013-10-08 10:55:00
6:15 AM,44.1,42.8,95,30.17,10.0,South,4.6,-,N/A,,Clear,180,2013-10-08 11:15:00
6:35 AM,43.7,42.8,97,30.18,10.0,Calm,Calm,-,N/A,,Clear,0,2013-10-08 11:35:00
6:55 AM,43.9,42.6,95,30.18,10.0,Calm,Calm,-,N/A,,Clear,0,2013-10-08 11:55:00
7:15 AM,44.6,43.0,94,30.19,10.0,Calm,Calm,-,N/A,,Clear,0,2013-10-08 12:15:00
7:35 AM,45.3,43.3,93,30.19,10.0,Calm,Calm,-,N/A,,Clear,0,2013-10-08 12:35:00
7:55 AM,48.4,45.5,90,30.20,10.0,Calm,Calm,-,N/A,,Clear,0,2013-10-08 12:55:00
8:15 AM,50.7,47.1,87,30.20,10.0,South,3.5,-,N/A,,Clear,190,2013-10-08 13:15:00
8:35 AM,53.2,48.4,84,30.21,10.0,SSW,3.5,-,N/A,,Clear,200,2013-10-08 13:35:00
8:55 AM,56.1,49.6,79,30.21,10.0,Calm,Calm,-,N/A,,Clear,0,2013-10-08 13:55:00
9:15 AM,58.1,49.3,72,30.22,10.0,SW,4.6,-,N/A,,Clear,220,2013-10-08 14:15:00
9:35 AM,60.1,49.8,69,30.21,10.0,SW,3.5,-,N/A,,Clear,230,2013-10-08 14:35:00
9:55 AM,61.9,49.6,64,30.21,10.0,Calm,Calm,-,N/A,,Clear,0,2013-10-08 14:55:00
10:15 AM,65.1,50.2,58,30.21,10.0,SW,3.5,-,N/A,,Clear,230,2013-10-08 15:15:00
10:35 AM,67.1,50.7,56,30.22,10.0,SW,4.6,-,N/A,,Clear,220,2013-10-08 15:35:00
10:55 AM,68.4,50.0,52,30.22,10.0,Calm,Calm,-,N/A,,Clear,0,2013-10-08 15:55:00
11:15 AM,69.3,48.9,48,30.21,10.0,Calm,Calm,-,N/A,,Clear,0,2013-10-08 16:15:00
11:35 AM,71.2,50.7,48,30.21,10.0,WSW,5.8,-,N/A,,Clear,240,2013-10-08 16:35:00
11:55 AM,72.3,48.9,43,30.21,10.0,SSE,5.8,-,N/A,,Clear,160,2013-10-08 16:55:00
12:15 PM,73.0,48.9,42,30.20,10.0,SSW,5.8,-,N/A,,Clear,210,2013-10-08 17:15:00
12:35 PM,73.8,48.2,40,30.19,10.0,SSW,3.5,-,N/A,,Clear,210,2013-10-08 17:35:00
12:55 PM,74.1,48.0,40,30.18,10.0,South,3.5,-,N/A,,Clear,170,2013-10-08 17:55:00
1:15 PM,74.3,47.3,38,30.17,10.0,Calm,Calm,-,N/A,,Clear,0,2013-10-08 18:15:00
1:35 PM,74.5,46.2,37,30.17,10.0,Calm,Calm,-,N/A,,Clear,0,2013-10-08 18:35:00
1:55 PM,75.0,47.8,38,30.16,10.0,South,4.6,-,N/A,,Clear,190,2013-10-08 18:55:00
2:15 PM,74.7,45.9,36,30.16,10.0,ESE,4.6,-,N/A,,Clear,120,2013-10-08 19:15:00
2:35 PM,75.4,46.9,36,30.15,10.0,South,5.8,-,N/A,,Clear,190,2013-10-08 19:35:00
2:55 PM,75.6,44.8,33,30.15,10.0,Calm,Calm,-,N/A,,Clear,0,2013-10-08 19:55:00
3:15 PM,75.7,46.6,35,30.15,10.0,South,6.9,-,N/A,,Clear,170,2013-10-08 20:15:00
3:35 PM,76.1,46.4,35,30.15,7.0,ENE,4.6,-,N/A,,Clear,70,2013-10-08 20:35:00
3:55 PM,75.6,45.7,35,30.14,10.0,Calm,Calm,-,N/A,,Clear,0,2013-10-08 20:55:00
4:15 PM,75.7,45.7,34,30.14,10.0,SE,6.9,-,N/A,,Clear,140,2013-10-08 21:15:00
4:35 PM,75.4,46.6,36,30.14,10.0,SSE,3.5,-,N/A,,Clear,160,2013-10-08 21:35:00
4:55 PM,74.8,46.2,36,30.15,10.0,SSE,4.6,-,N/A,,Clear,160,2013-10-08 21:55:00
5:15 PM,74.3,45.9,36,30.15,10.0,SSE,5.8,-,N/A,,Clear,160,2013-10-08 22:15:00
5:35 PM,73.0,46.8,39,30.15,10.0,SSE,3.5,-,N/A,,Clear,150,2013-10-08 22:35:00
5:55 PM,71.6,46.4,41,30.15,10.0,SSE,4.6,-,N/A,,Clear,160,2013-10-08 22:55:00
6:15 PM,69.6,46.4,43,30.15,10.0,SSE,5.8,-,N/A,,Clear,160,2013-10-08 23:15:00
6:35 PM,68.2,46.4,46,30.16,10.0,SSE,5.8,-,N/A,,Clear,160,2013-10-08 23:35:00
6:55 PM,66.4,47.3,50,30.17,10.0,SSE,6.9,-,N/A,,Clear,160,2013-10-08 23:55:00
7:15 PM,65.5,47.3,52,30.17,10.0,SSE,4.6,-,N/A,,Clear,160,2013-10-09 00:15:00
7:35 PM,64.6,47.3,53,30.17,10.0,SSE,5.8,-,N/A,,Clear,150,2013-10-09 00:35:00
7:55 PM,64.0,47.3,54,30.17,10.0,SSE,5.8,-,N/A,,Clear,150,2013-10-09 00:55:00
8:15 PM,62.4,47.5,58,30.18,10.0,SE,5.8,-,N/A,,Clear,140,2013-10-09 01:15:00
8:35 PM,61.9,47.5,59,30.18,10.0,SE,6.9,-,N/A,,Clear,140,2013-10-09 01:35:00
8:55 PM,62.2,48.0,60,30.19,10.0,SSE,6.9,-,N/A,,Clear,150,2013-10-09 01:55:00
9:15 PM,61.9,48.0,60,30.19,10.0,SSE,6.9,-,N/A,,Clear,150,2013-10-09 02:15:00
9:35 PM,61.2,48.0,62,30.19,10.0,SE,5.8,-,N/A,,Clear,140,2013-10-09 02:35:00
9:55 PM,59.9,48.0,65,30.19,10.0,SE,5.8,-,N/A,,Clear,140,2013-10-09 02:55:00
10:15 PM,55.0,47.5,76,30.19,10.0,SE,4.6,-,N/A,,Clear,130,2013-10-09 03:15:00
10:35 PM,54.9,47.8,77,30.19,10.0,SE,3.5,-,N/A,,Clear,130,2013-10-09 03:35:00
10:55 PM,51.8,47.3,85,30.19,10.0,ESE,3.5,-,N/A,,Clear,120,2013-10-09 03:55:00
11:15 PM,51.8,47.3,85,30.19,10.0,SE,3.5,-,N/A,,Clear,130,2013-10-09 04:15:00
11:35 PM,51.6,46.9,84,30.19,10.0,Calm,Calm,-,N/A,,Clear,0,2013-10-09 04:35:00
11:55 PM,51.1,46.8,85,30.19,10.0,ESE,3.5,-,N/A,,Clear,110,2013-10-09 04:55:00